createdAt,value
2023-03-06T00:02:50.544Z,-3.46
2023-03-06T00:05:11.957Z,-3.46
2023-03-06T00:07:49.804Z,-3.45
2023-03-06T00:10:33.133Z,-3.45
2023-03-06T00:12:14.313Z,-3.43
2023-03-06T00:12:51.126Z,-3.43
2023-03-06T00:17:50.353Z,-3.50
2023-03-06T00:22:50.692Z,-3.50
2023-03-06T00:27:50.499Z,-3.51
2023-03-06T00:30:29.866Z,-3.51
2023-03-06T00:32:51.531Z,-3.56
2023-03-06T00:37:49.762Z,-3.60
2023-03-06T00:42:50.115Z,-3.66
2023-03-06T00:47:49.972Z,-3.67
2023-03-06T00:51:38.349Z,-3.61
2023-03-06T00:52:49.985Z,-3.61
2023-03-06T00:57:50.148Z,-3.59
2023-03-06T01:02:50.478Z,-3.58
2023-03-06T01:07:49.800Z,-3.59
2023-03-06T01:12:50.021Z,-3.56
2023-03-06T01:17:51.902Z,-3.58
2023-03-06T01:18:38.489Z,-3.58
2023-03-06T01:19:19.046Z,-3.58
2023-03-06T01:22:49.834Z,-3.52
2023-03-06T01:27:50.656Z,-3.48
2023-03-06T01:32:49.725Z,-3.45
2023-03-06T01:37:49.697Z,-3.47
2023-03-06T01:42:50.062Z,-3.49
2023-03-06T01:47:49.739Z,-3.51
2023-03-06T01:52:52.123Z,-3.55
2023-03-06T01:57:54.873Z,-3.55
2023-03-06T02:02:52.859Z,-3.58
2023-03-06T02:05:15.213Z,-3.58
2023-03-06T02:07:50.504Z,-3.61
2023-03-06T02:08:51.773Z,-3.61
2023-03-06T02:12:51.015Z,-3.62
2023-03-06T02:17:51.151Z,-3.61
2023-03-06T02:22:56.172Z,-3.60
2023-03-06T02:24:59.052Z,-3.60
2023-03-06T02:27:49.663Z,-3.58
2023-03-06T02:32:50.237Z,-3.58
2023-03-06T02:37:50.373Z,-3.58
2023-03-06T02:42:55.278Z,-3.60
2023-03-06T02:47:50.017Z,-3.64
2023-03-06T02:52:49.872Z,-3.69
2023-03-06T02:57:49.703Z,-3.71
2023-03-06T03:02:50.704Z,-3.67
2023-03-06T03:07:49.590Z,-3.69
2023-03-06T03:12:49.878Z,-3.73
2023-03-06T03:16:13.017Z,-3.73
2023-03-06T03:17:49.667Z,-3.71
2023-03-06T03:22:51.837Z,-3.71
2023-03-06T03:27:50.372Z,-3.73
2023-03-06T03:30:22.407Z,-3.73
2023-03-06T03:32:31.953Z,-3.71
2023-03-06T03:32:49.887Z,-3.71
2023-03-06T03:37:51.648Z,-3.74
2023-03-06T03:42:49.801Z,-3.73
2023-03-06T03:47:49.637Z,-3.75
2023-03-06T03:52:49.548Z,-3.78
2023-03-06T03:57:49.886Z,-3.72
2023-03-06T04:02:48.557Z,-3.73
2023-03-06T04:02:49.400Z,-3.73
2023-03-06T04:04:21.570Z,-3.73
2023-03-06T04:07:49.639Z,-3.74
2023-03-06T04:09:53.301Z,-3.74
2023-03-06T04:12:49.701Z,-3.75
2023-03-06T04:17:49.640Z,-3.71
2023-03-06T04:19:14.811Z,-3.71
2023-03-06T04:22:49.924Z,-3.71
2023-03-06T04:27:49.589Z,-3.69
2023-03-06T04:32:49.725Z,-3.72
2023-03-06T04:36:32.054Z,-3.72
2023-03-06T04:37:49.507Z,-3.81
2023-03-06T04:42:49.818Z,-3.82
2023-03-06T04:47:49.797Z,-3.90
2023-03-06T04:52:49.689Z,-3.92
2023-03-06T04:57:49.497Z,-3.93
2023-03-06T05:02:50.365Z,-3.89
2023-03-06T05:07:49.633Z,-3.88
2023-03-06T05:12:49.945Z,-3.85
2023-03-06T05:17:49.728Z,-3.83
2023-03-06T05:22:50.296Z,-3.77
2023-03-06T05:27:49.485Z,-3.72
2023-03-06T05:32:50.384Z,-3.69
2023-03-06T05:37:49.740Z,-3.59
2023-03-06T05:42:49.710Z,-3.45
2023-03-06T05:47:49.872Z,-3.29
2023-03-06T05:52:49.591Z,-3.12
2023-03-06T05:57:50.134Z,-2.86
2023-03-06T06:02:49.975Z,-2.67
2023-03-06T06:07:49.466Z,-2.34
2023-03-06T06:12:49.648Z,-2.02
2023-03-06T06:17:50.109Z,-1.74
2023-03-06T06:22:50.347Z,-1.50
2023-03-06T06:27:49.385Z,-1.24
2023-03-06T06:32:49.872Z,-0.86
2023-03-06T06:37:49.639Z,-0.48
2023-03-06T06:42:51.561Z,0.09
2023-03-06T06:47:50.009Z,0.89
2023-03-06T06:52:49.502Z,1.60
2023-03-06T06:57:49.378Z,1.74
2023-03-06T07:02:50.343Z,2.19
2023-03-06T07:07:50.508Z,2.56
2023-03-06T07:12:49.381Z,3.05
2023-03-06T07:17:50.346Z,3.54
2023-03-06T07:22:51.656Z,4.20
2023-03-06T07:27:53.616Z,4.70
2023-03-06T07:32:51.608Z,5.50
2023-03-06T07:37:50.194Z,6.41
2023-03-06T07:42:52.596Z,6.71
2023-03-06T07:47:50.090Z,7.81
2023-03-06T07:52:50.580Z,15.43
2023-03-06T07:57:49.949Z,20.65
2023-03-06T08:02:49.783Z,24.68
2023-03-06T08:07:49.342Z,21.20
2023-03-06T08:12:49.383Z,21.66
2023-03-06T08:17:49.760Z,21.08
2023-03-06T08:22:49.556Z,19.19
2023-03-06T08:27:49.566Z,13.65
2023-03-06T08:32:49.741Z,10.49
2023-03-06T08:37:49.347Z,8.99
2023-03-06T08:42:49.398Z,7.62
2023-03-06T08:47:49.909Z,7.01
2023-03-06T08:52:49.325Z,6.66
2023-03-06T08:57:49.485Z,7.94
2023-03-06T09:02:49.931Z,8.03
2023-03-06T09:07:49.428Z,8.00
2023-03-06T09:12:52.444Z,8.09
2023-03-06T09:17:50.186Z,8.95
2023-03-06T09:22:49.339Z,8.82
2023-03-06T09:28:01.772Z,8.29
2023-03-06T09:32:49.566Z,8.29
2023-03-06T09:37:49.332Z,7.95
2023-03-06T09:42:49.585Z,7.40
2023-03-06T09:47:55.086Z,6.80
2023-03-06T09:53:01.797Z,6.26
2023-03-06T09:57:54.671Z,6.09
2023-03-06T10:02:59.969Z,5.64
2023-03-06T10:07:54.245Z,5.24
2023-03-06T10:13:01.252Z,5.13
2023-03-06T10:17:49.937Z,4.91
2023-03-06T10:23:03.037Z,4.82
2023-03-06T10:27:52.980Z,4.34
2023-03-06T10:32:54.702Z,4.34
2023-03-06T10:37:49.399Z,4.12
2023-03-06T10:42:56.200Z,4.22
2023-03-06T10:47:49.890Z,3.56
2023-03-06T10:52:58.591Z,3.33
2023-03-06T10:57:49.283Z,3.32
2023-03-06T11:03:04.183Z,3.29
2023-03-06T11:07:54.699Z,3.20
2023-03-06T11:12:56.452Z,3.03
2023-03-06T11:17:53.995Z,2.90
2023-03-06T11:22:54.012Z,2.79
2023-03-06T11:27:55.155Z,2.81
2023-03-06T11:32:54.599Z,2.75
2023-03-06T11:37:53.205Z,2.66
2023-03-06T11:42:58.506Z,2.46
2023-03-06T11:47:57.076Z,2.58
2023-03-06T11:52:53.469Z,2.61
2023-03-06T11:57:57.529Z,2.45
2023-03-06T12:03:03.363Z,2.27
2023-03-06T12:07:57.057Z,2.18
2023-03-06T12:13:06.765Z,2.00
2023-03-06T12:17:58.949Z,1.76
2023-03-06T12:22:58.059Z,1.74
2023-03-06T12:27:55.238Z,1.63
2023-03-06T12:32:55.008Z,1.66
2023-03-06T12:38:02.410Z,1.55
2023-03-06T12:43:04.861Z,1.54
2023-03-06T12:47:53.384Z,1.50
2023-03-06T12:52:51.463Z,1.43
2023-03-06T12:57:49.983Z,1.44
2023-03-06T13:03:05.512Z,1.41
2023-03-06T13:07:59.816Z,1.41
2023-03-06T13:12:54.871Z,1.44
2023-03-06T13:17:49.185Z,1.26
2023-03-06T13:22:49.232Z,1.11
2023-03-06T13:28:00.227Z,1.15
2023-03-06T13:32:51.801Z,1.03
2023-03-06T13:37:49.687Z,0.99
2023-03-06T13:43:01.171Z,0.92
2023-03-06T13:48:21.174Z,0.84
2023-03-06T13:53:02.429Z,0.99
2023-03-06T13:58:02.477Z,0.91
2023-03-06T14:03:02.185Z,0.88
2023-03-06T14:08:03.166Z,0.87
2023-03-06T14:13:00.404Z,0.85
2023-03-06T14:17:55.491Z,0.97
2023-03-06T14:22:49.402Z,1.00
2023-03-06T14:27:55.003Z,1.02
2023-03-06T14:32:51.475Z,1.09
2023-03-06T14:37:52.245Z,1.06
2023-03-06T14:43:08.979Z,1.13
2023-03-06T14:47:50.666Z,1.22
2023-03-06T14:52:54.404Z,1.26
2023-03-06T14:57:54.987Z,1.31
2023-03-06T15:02:50.613Z,1.28
2023-03-06T15:07:51.952Z,1.20
2023-03-06T15:12:49.119Z,1.22
2023-03-06T15:17:49.244Z,1.23
2023-03-06T15:22:49.569Z,1.25
2023-03-06T15:27:50.881Z,1.27
2023-03-06T15:32:49.277Z,1.31
2023-03-06T15:37:49.678Z,1.41
2023-03-06T15:42:49.413Z,1.35
2023-03-06T15:47:51.266Z,1.34
2023-03-06T15:52:49.463Z,1.34
2023-03-06T15:57:51.970Z,1.28
2023-03-06T16:02:49.103Z,1.25
2023-03-06T16:07:49.955Z,1.21
2023-03-06T16:12:52.948Z,1.12
2023-03-06T16:17:48.934Z,1.14
2023-03-06T16:22:50.326Z,1.11
2023-03-06T16:27:54.443Z,1.04
2023-03-06T16:32:49.291Z,1.05
2023-03-06T16:37:49.718Z,1.07
2023-03-06T16:42:50.027Z,1.07
2023-03-06T16:47:49.691Z,1.01
2023-03-06T16:52:50.811Z,0.99
2023-03-06T16:57:49.305Z,1.00
2023-03-06T17:02:50.469Z,1.02
2023-03-06T17:07:49.481Z,1.03
2023-03-06T17:12:49.137Z,0.98
2023-03-06T17:17:50.619Z,0.97
2023-03-06T17:22:49.406Z,1.00
2023-03-06T17:27:49.119Z,0.92
2023-03-06T17:32:48.879Z,0.84
2023-03-06T17:37:49.958Z,0.84
2023-03-06T17:42:49.778Z,0.85
2023-03-06T17:47:52.473Z,0.86
2023-03-06T17:52:49.287Z,0.91
2023-03-06T17:57:50.910Z,0.94
2023-03-06T18:02:49.007Z,0.90
2023-03-06T18:07:49.170Z,0.92
2023-03-06T18:12:49.293Z,0.90
2023-03-06T18:17:49.035Z,0.87
2023-03-06T18:22:49.134Z,0.91
2023-03-06T18:27:48.813Z,0.90
2023-03-06T18:32:50.017Z,0.89
2023-03-06T18:37:49.020Z,0.91
2023-03-06T18:42:50.861Z,0.87
2023-03-06T18:47:48.849Z,0.90
2023-03-06T18:52:49.477Z,0.93
2023-03-06T18:57:48.810Z,0.93
2023-03-06T19:02:49.022Z,0.91
2023-03-06T19:07:48.980Z,0.87
2023-03-06T19:12:48.945Z,0.80
2023-03-06T19:17:48.865Z,0.78
2023-03-06T19:22:49.796Z,0.76
2023-03-06T19:27:48.887Z,0.76
2023-03-06T19:32:48.887Z,0.74
2023-03-06T19:37:49.287Z,0.75
2023-03-06T19:42:49.451Z,0.84
2023-03-06T19:47:49.568Z,0.77
2023-03-06T19:52:51.378Z,0.81
2023-03-06T19:57:48.906Z,0.77
2023-03-06T20:02:49.014Z,0.73
2023-03-06T20:07:49.661Z,0.67
2023-03-06T20:12:48.934Z,0.62
2023-03-06T20:18:09.776Z,0.64
2023-03-06T20:22:48.829Z,0.65
2023-03-06T20:27:48.821Z,0.61
2023-03-06T20:32:49.254Z,0.63
2023-03-06T20:37:48.817Z,0.58
2023-03-06T20:42:48.858Z,0.54
2023-03-06T20:47:48.915Z,0.51
2023-03-06T20:52:52.638Z,0.45
2023-03-06T20:57:49.417Z,0.41
2023-03-06T21:02:49.061Z,0.40
2023-03-06T21:07:48.712Z,0.41
2023-03-06T21:12:48.973Z,0.45
2023-03-06T21:17:48.843Z,0.49
2023-03-06T21:22:50.246Z,0.49
2023-03-06T21:27:49.112Z,0.53
2023-03-06T21:32:50.135Z,0.51
2023-03-06T21:37:48.862Z,0.48
2023-03-06T21:42:48.793Z,0.54
2023-03-06T21:47:49.079Z,0.59
2023-03-06T21:52:48.931Z,0.58
2023-03-06T21:57:49.847Z,0.61
2023-03-06T22:02:49.391Z,0.65
2023-03-06T22:07:48.678Z,0.66
2023-03-06T22:12:48.902Z,0.62
2023-03-06T22:17:48.899Z,0.62
2023-03-06T22:22:48.778Z,0.64
2023-03-06T22:27:48.723Z,0.67
2023-03-06T22:32:51.446Z,0.69
2023-03-06T22:37:48.798Z,0.73
2023-03-06T22:42:48.810Z,0.72
2023-03-06T22:47:48.927Z,0.70
2023-03-06T22:52:48.731Z,0.72
2023-03-06T22:57:48.877Z,0.76
2023-03-06T23:02:48.853Z,0.74
2023-03-06T23:07:48.588Z,0.72
2023-03-06T23:12:48.759Z,0.71
2023-03-06T23:17:50.227Z,0.68
2023-03-06T23:22:48.606Z,0.56
2023-03-06T23:27:48.661Z,0.54
2023-03-06T23:32:48.916Z,0.38
2023-03-06T23:37:48.631Z,0.39
2023-03-06T23:42:48.758Z,0.43
2023-03-06T23:47:48.635Z,0.31
2023-03-06T23:52:50.537Z,0.23
2023-03-06T23:57:48.705Z,0.25
